sensor_id;sensor_type;location;lat;lon;timestamp;pressure;altitude;pressure_sealevel;temperature;humidity
6216;BME280;3141;49.234;9.326;2022-10-17T00:00:21;100148.72;;;15.95;92.57
6216;BME280;3141;49.234;9.326;2022-10-17T00:01:04;100148.06;;;15.93;92.57
6216;BME280;3141;49.234;9.326;2022-10-17T00:01:47;100151.69;;;16.00;92.55
6216;BME280;3141;49.234;9.326;2022-10-17T00:02:30;100150.84;;;16.00;91.99
6216;BME280;3141;49.234;9.326;2022-10-17T00:03:12;100151.97;;;16.05;91.83
6216;BME280;3141;49.234;9.326;2022-10-17T00:03:55;100153.47;;;16.08;91.71
6216;BME280;3141;49.234;9.326;2022-10-17T00:04:37;100153.94;;;16.11;90.82
6216;BME280;3141;49.234;9.326;2022-10-17T00:05:20;100150.25;;;16.12;90.97
6216;BME280;3141;49.234;9.326;2022-10-17T00:06:13;100159.28;;;16.11;90.19
6216;BME280;3141;49.234;9.326;2022-10-17T00:06:56;100153.94;;;16.11;90.22
6216;BME280;3141;49.234;9.326;2022-10-17T00:07:38;100145.66;;;16.06;89.82
6216;BME280;3141;49.234;9.326;2022-10-17T00:08:20;100152.03;;;15.97;89.75
6216;BME280;3141;49.234;9.326;2022-10-17T00:09:03;100145.78;;;16.05;90.27
6216;BME280;3141;49.234;9.326;2022-10-17T00:09:45;100157.47;;;16.04;90.19
6216;BME280;3141;49.234;9.326;2022-10-17T00:10:28;100154.41;;;15.92;90.63
6216;BME280;3141;49.234;9.326;2022-10-17T00:11:19;100149.09;;;15.92;91.16
6216;BME280;3141;49.234;9.326;2022-10-17T00:12:02;100150.38;;;15.96;91.01
6216;BME280;3141;49.234;9.326;2022-10-17T00:12:44;100149.56;;;15.96;90.97
6216;BME280;3141;49.234;9.326;2022-10-17T00:13:27;100149.41;;;15.89;91.70
6216;BME280;3141;49.234;9.326;2022-10-17T00:14:09;100147.78;;;15.88;92.19
6216;BME280;3141;49.234;9.326;2022-10-17T00:14:52;100152.75;;;15.91;92.06
6216;BME280;3141;49.234;9.326;2022-10-17T00:15:34;100148.91;;;15.94;91.51
6216;BME280;3141;49.234;9.326;2022-10-17T00:16:31;100154.94;;;15.88;92.03
6216;BME280;3141;49.234;9.326;2022-10-17T00:17:14;100150.06;;;15.91;91.99
6216;BME280;3141;49.234;9.326;2022-10-17T00:17:57;100155.84;;;15.80;91.92
6216;BME280;3141;49.234;9.326;2022-10-17T00:18:40;100158.22;;;15.75;92.60
6216;BME280;3141;49.234;9.326;2022-10-17T00:19:22;100155.88;;;15.72;93.11
6216;BME280;3141;49.234;9.326;2022-10-17T00:20:05;100160.22;;;15.73;92.91
6216;BME280;3141;49.234;9.326;2022-10-17T00:20:47;100161.19;;;15.80;92.32
6216;BME280;3141;49.234;9.326;2022-10-17T00:21:29;100159.50;;;15.79;92.04
6216;BME280;3141;49.234;9.326;2022-10-17T00:22:12;100162.88;;;15.73;91.93
6216;BME280;3141;49.234;9.326;2022-10-17T00:22:55;100161.88;;;15.74;92.43
6216;BME280;3141;49.234;9.326;2022-10-17T00:23:37;100160.16;;;15.81;91.71
6216;BME280;3141;49.234;9.326;2022-10-17T00:24:19;100160.09;;;15.89;91.26
6216;BME280;3141;49.234;9.326;2022-10-17T00:25:02;100160.09;;;15.89;90.57
6216;BME280;3141;49.234;9.326;2022-10-17T00:25:44;100156.63;;;15.89;90.10
6216;BME280;3141;49.234;9.326;2022-10-17T00:26:27;100150.44;;;15.88;90.07
6216;BME280;3141;49.234;9.326;2022-10-17T00:27:10;100159.94;;;15.91;89.99
6216;BME280;3141;49.234;9.326;2022-10-17T00:27:53;100160.09;;;15.89;89.98
6216;BME280;3141;49.234;9.326;2022-10-17T00:28:35;100166.44;;;15.88;89.54
6216;BME280;3141;49.234;9.326;2022-10-17T00:29:17;100162.94;;;15.88;89.84
6216;BME280;3141;49.234;9.326;2022-10-17T00:30:00;100161.66;;;15.84;89.77
6216;BME280;3141;49.234;9.326;2022-10-17T00:30:42;100155.38;;;15.77;89.99
6216;BME280;3141;49.234;9.326;2022-10-17T00:31:24;100162.81;;;15.81;89.71
6216;BME280;3141;49.234;9.326;2022-10-17T00:32:07;100165.50;;;15.81;89.64
6216;BME280;3141;49.234;9.326;2022-10-17T00:32:49;100169.22;;;15.72;89.64
6216;BME280;3141;49.234;9.326;2022-10-17T00:33:33;100163.88;;;15.72;90.38
6216;BME280;3141;49.234;9.326;2022-10-17T00:34:15;100169.22;;;15.72;90.50
6216;BME280;3141;49.234;9.326;2022-10-17T00:34:58;100161.88;;;15.74;90.47
6216;BME280;3141;49.234;9.326;2022-10-17T00:35:40;100154.88;;;15.73;90.18
6216;BME280;3141;49.234;9.326;2022-10-17T00:36:25;100167.69;;;15.78;90.13
6216;BME280;3141;49.234;9.326;2022-10-17T00:37:07;100163.53;;;15.75;90.49
6216;BME280;3141;49.234;9.326;2022-10-17T00:37:49;100161.38;;;15.71;90.50
6216;BME280;3141;49.234;9.326;2022-10-17T00:38:32;100154.41;;;15.70;90.80
6216;BME280;3141;49.234;9.326;2022-10-17T00:39:14;100160.69;;;15.77;90.51
6216;BME280;3141;49.234;9.326;2022-10-17T00:39:57;100161.00;;;15.82;90.19
6216;BME280;3141;49.234;9.326;2022-10-17T00:40:40;100163.19;;;15.78;89.86
6216;BME280;3141;49.234;9.326;2022-10-17T00:41:25;100169.22;;;15.72;89.89
6216;BME280;3141;49.234;9.326;2022-10-17T00:42:12;100156.59;;;15.66;90.15
6216;BME280;3141;49.234;9.326;2022-10-17T00:42:55;100156.13;;;15.63;90.44
6216;BME280;3141;49.234;9.326;2022-10-17T00:43:53;100159.97;;;15.60;90.79
6216;BME280;3141;49.234;9.326;2022-10-17T00:45:25;100167.28;;;15.58;90.97
6216;BME280;3141;49.234;9.326;2022-10-17T00:46:07;100165.66;;;15.57;90.83
6216;BME280;3141;49.234;9.326;2022-10-17T00:46:50;100165.28;;;15.60;90.71
6216;BME280;3141;49.234;9.326;2022-10-17T00:47:34;100164.13;;;15.63;90.52
6216;BME280;3141;49.234;9.326;2022-10-17T00:48:18;100160.25;;;15.65;89.96
6216;BME280;3141;49.234;9.326;2022-10-17T00:49:04;100158.44;;;15.66;89.66
6216;BME280;3141;49.234;9.326;2022-10-17T00:49:48;100157.78;;;15.64;89.94
6216;BME280;3141;49.234;9.326;2022-10-17T00:50:30;100162.97;;;15.57;90.36
6216;BME280;3141;49.234;9.326;2022-10-17T00:51:13;100163.69;;;15.51;90.51
6216;BME280;3141;49.234;9.326;2022-10-17T00:51:59;100163.16;;;15.56;90.76
6216;BME280;3141;49.234;9.326;2022-10-17T00:52:43;100165.28;;;15.60;90.18
6216;BME280;3141;49.234;9.326;2022-10-17T00:53:26;100161.63;;;15.61;90.37
6216;BME280;3141;49.234;9.326;2022-10-17T00:54:10;100170.97;;;15.57;90.17
6216;BME280;3141;49.234;9.326;2022-10-17T00:54:57;100168.97;;;15.59;89.92
6216;BME280;3141;49.234;9.326;2022-10-17T00:55:49;100174.13;;;15.61;89.25
6216;BME280;3141;49.234;9.326;2022-10-17T00:56:32;100161.34;;;15.56;89.46
6216;BME280;3141;49.234;9.326;2022-10-17T00:57:15;100169.97;;;15.58;89.60
6216;BME280;3141;49.234;9.326;2022-10-17T00:57:59;100161.34;;;15.56;89.09
6216;BME280;3141;49.234;9.326;2022-10-17T00:58:43;100165.28;;;15.60;89.27
6216;BME280;3141;49.234;9.326;2022-10-17T00:59:26;100168.97;;;15.59;89.03
6216;BME280;3141;49.234;9.326;2022-10-17T01:00:10;100165.66;;;15.57;89.20
6216;BME280;3141;49.234;9.326;2022-10-17T01:00:52;100167.84;;;15.54;89.23
6216;BME280;3141;49.234;9.326;2022-10-17T01:01:34;100161.03;;;15.51;89.14
6216;BME280;3141;49.234;9.326;2022-10-17T01:02:19;100167.53;;;15.49;89.42
6216;BME280;3141;49.234;9.326;2022-10-17T01:03:02;100167.41;;;15.42;89.25
6216;BME280;3141;49.234;9.326;2022-10-17T01:03:45;100168.69;;;15.46;89.66
6216;BME280;3141;49.234;9.326;2022-10-17T01:04:27;100165.88;;;15.48;89.67
6216;BME280;3141;49.234;9.326;2022-10-17T01:05:10;100166.22;;;15.45;89.75
6216;BME280;3141;49.234;9.326;2022-10-17T01:05:53;100168.38;;;15.41;89.63
6216;BME280;3141;49.234;9.326;2022-10-17T01:06:35;100167.41;;;15.42;89.99
6216;BME280;3141;49.234;9.326;2022-10-17T01:07:18;100174.75;;;15.40;89.82
6216;BME280;3141;49.234;9.326;2022-10-17T01:08:00;100173.06;;;15.39;89.60
6216;BME280;3141;49.234;9.326;2022-10-17T01:08:43;100174.75;;;15.40;89.66
6216;BME280;3141;49.234;9.326;2022-10-17T01:09:26;100170.91;;;15.43;89.56
6216;BME280;3141;49.234;9.326;2022-10-17T01:10:09;100169.56;;;15.39;89.67
6216;BME280;3141;49.234;9.326;2022-10-17T01:12:19;100170.72;;;15.36;89.99
6216;BME280;3141;49.234;9.326;2022-10-17T01:13:56;100172.72;;;15.42;89.69
6216;BME280;3141;49.234;9.326;2022-10-17T01:14:57;100174.88;;;15.47;89.72
6216;BME280;3141;49.234;9.326;2022-10-17T01:15:59;100174.75;;;15.40;89.67
6216;BME280;3141;49.234;9.326;2022-10-17T01:17:10;100174.91;;;15.31;90.37
6216;BME280;3141;49.234;9.326;2022-10-17T01:18:21;100178.38;;;15.39;90.21
6216;BME280;3141;49.234;9.326;2022-10-17T01:22:32;100186.53;;;15.38;89.01
6216;BME280;3141;49.234;9.326;2022-10-17T01:24:52;100178.09;;;15.26;88.92
6216;BME280;3141;49.234;9.326;2022-10-17T01:25:56;100183.72;;;15.31;89.33
6216;BME280;3141;49.234;9.326;2022-10-17T01:27:51;100190.44;;;15.27;89.02
6216;BME280;3141;49.234;9.326;2022-10-17T01:29:36;100181.78;;;15.25;89.42
6216;BME280;3141;49.234;9.326;2022-10-17T01:31:15;100182.81;;;15.16;89.92
6216;BME280;3141;49.234;9.326;2022-10-17T01:32:12;100188.63;;;15.20;90.09
6216;BME280;3141;49.234;9.326;2022-10-17T01:34:08;100190.75;;;15.24;89.42
6216;BME280;3141;49.234;9.326;2022-10-17T01:35:21;100191.78;;;15.23;89.04
6216;BME280;3141;49.234;9.326;2022-10-17T01:36:39;100184.94;;;15.21;89.20
6216;BME280;3141;49.234;9.326;2022-10-17T01:37:42;100188.13;;;15.16;89.29
6216;BME280;3141;49.234;9.326;2022-10-17T01:38:42;100190.97;;;15.15;89.42
6216;BME280;3141;49.234;9.326;2022-10-17T01:40:20;100194.50;;;15.07;89.73
6216;BME280;3141;49.234;9.326;2022-10-17T01:41:26;100193.66;;;15.06;90.40
6216;BME280;3141;49.234;9.326;2022-10-17T01:42:20;100189.34;;;15.05;90.48
6216;BME280;3141;49.234;9.326;2022-10-17T01:43:10;100196.16;;;15.08;90.06
6216;BME280;3141;49.234;9.326;2022-10-17T01:44:02;100190.53;;;14.95;90.55
6216;BME280;3141;49.234;9.326;2022-10-17T01:44:57;100187.88;;;14.95;91.33
6216;BME280;3141;49.234;9.326;2022-10-17T01:45:59;100184.38;;;14.94;91.44
6216;BME280;3141;49.234;9.326;2022-10-17T01:46:48;100187.53;;;14.98;91.11
6216;BME280;3141;49.234;9.326;2022-10-17T01:47:32;100191.19;;;14.97;90.61
6216;BME280;3141;49.234;9.326;2022-10-17T01:48:23;100194.00;;;15.03;90.58
6216;BME280;3141;49.234;9.326;2022-10-17T01:49:08;100193.66;;;15.06;90.41
6216;BME280;3141;49.234;9.326;2022-10-17T01:49:54;100190.19;;;14.98;89.96
6216;BME280;3141;49.234;9.326;2022-10-17T01:50:44;100195.03;;;14.94;90.35
6216;BME280;3141;49.234;9.326;2022-10-17T01:51:32;100187.69;;;14.96;90.37
6216;BME280;3141;49.234;9.326;2022-10-17T01:52:24;100189.03;;;15.00;89.77
6216;BME280;3141;49.234;9.326;2022-10-17T01:53:12;100181.56;;;14.88;89.85
6216;BME280;3141;49.234;9.326;2022-10-17T01:54:08;100192.38;;;14.86;90.33
6216;BME280;3141;49.234;9.326;2022-10-17T01:55:08;100189.06;;;14.84;90.94
6216;BME280;3141;49.234;9.326;2022-10-17T01:55:53;100189.22;;;14.91;90.53
6216;BME280;3141;49.234;9.326;2022-10-17T01:56:39;100185.22;;;14.95;89.84
6216;BME280;3141;49.234;9.326;2022-10-17T01:57:28;100190.19;;;14.98;89.61
6216;BME280;3141;49.234;9.326;2022-10-17T01:58:16;100188.53;;;14.97;89.45
6216;BME280;3141;49.234;9.326;2022-10-17T01:59:20;100188.09;;;14.85;90.18
6216;BME280;3141;49.234;9.326;2022-10-17T02:00:05;100178.56;;;14.91;90.33
6216;BME280;3141;49.234;9.326;2022-10-17T02:00:50;100186.22;;;14.86;90.40
6216;BME280;3141;49.234;9.326;2022-10-17T02:01:36;100186.09;;;14.79;90.93
6216;BME280;3141;49.234;9.326;2022-10-17T02:02:19;100181.06;;;14.84;91.02
6216;BME280;3141;49.234;9.326;2022-10-17T02:03:06;100177.59;;;14.84;91.09
6216;BME280;3141;49.234;9.326;2022-10-17T02:03:51;100182.25;;;14.82;91.49
6216;BME280;3141;49.234;9.326;2022-10-17T02:04:35;100179.13;;;14.78;91.70
6216;BME280;3141;49.234;9.326;2022-10-17T02:05:21;100181.09;;;14.76;91.76
6216;BME280;3141;49.234;9.326;2022-10-17T02:06:05;100175.78;;;14.76;91.54
6216;BME280;3141;49.234;9.326;2022-10-17T02:06:47;100177.44;;;14.77;91.10
6216;BME280;3141;49.234;9.326;2022-10-17T02:07:30;100174.78;;;14.77;90.92
6216;BME280;3141;49.234;9.326;2022-10-17T02:08:12;100177.94;;;14.81;90.63
6216;BME280;3141;49.234;9.326;2022-10-17T02:08:55;100167.63;;;14.78;90.82
6216;BME280;3141;49.234;9.326;2022-10-17T02:09:38;100174.28;;;14.82;90.56
6216;BME280;3141;49.234;9.326;2022-10-17T02:10:30;100174.94;;;14.76;90.21
6216;BME280;3141;49.234;9.326;2022-10-17T02:11:19;100177.59;;;14.76;90.79
6216;BME280;3141;49.234;9.326;2022-10-17T02:13:21;100173.41;;;14.89;90.04
6216;BME280;3141;49.234;9.326;2022-10-17T02:15:16;100176.06;;;14.89;89.38
6216;BME280;3141;49.234;9.326;2022-10-17T02:16:13;100171.31;;;14.77;89.89
6216;BME280;3141;49.234;9.326;2022-10-17T02:17:13;100174.94;;;14.76;90.56
6216;BME280;3141;49.234;9.326;2022-10-17T02:20:24;100179.91;;;14.79;90.22
6216;BME280;3141;49.234;9.326;2022-10-17T02:22:43;100173.09;;;14.84;89.36
6216;BME280;3141;49.234;9.326;2022-10-17T02:23:37;100174.94;;;14.84;89.28
6216;BME280;3141;49.234;9.326;2022-10-17T02:24:44;100177.25;;;14.87;88.74
6216;BME280;3141;49.234;9.326;2022-10-17T02:26:55;100179.44;;;14.83;88.51
6216;BME280;3141;49.234;9.326;2022-10-17T02:29:06;100176.09;;;14.81;88.72
6216;BME280;3141;49.234;9.326;2022-10-17T02:30:12;100174.44;;;14.80;88.32
6216;BME280;3141;49.234;9.326;2022-10-17T02:31:07;100174.97;;;14.68;88.82
6216;BME280;3141;49.234;9.326;2022-10-17T02:32:00;100171.16;;;14.62;89.67
6216;BME280;3141;49.234;9.326;2022-10-17T02:32:49;100183.00;;;14.60;90.13
6216;BME280;3141;49.234;9.326;2022-10-17T02:33:41;100181.47;;;14.57;90.35
6216;BME280;3141;49.234;9.326;2022-10-17T02:34:43;100182.63;;;14.55;90.71
6216;BME280;3141;49.234;9.326;2022-10-17T02:35:31;100179.34;;;14.53;90.35
6216;BME280;3141;49.234;9.326;2022-10-17T02:36:19;100177.00;;;14.58;89.66
6216;BME280;3141;49.234;9.326;2022-10-17T02:37:04;100180.31;;;14.60;89.84
6216;BME280;3141;49.234;9.326;2022-10-17T02:37:50;100184.81;;;14.59;89.76
6216;BME280;3141;49.234;9.326;2022-10-17T02:38:33;100178.97;;;14.64;89.33
6216;BME280;3141;49.234;9.326;2022-10-17T02:39:19;100182.63;;;14.63;88.80
6216;BME280;3141;49.234;9.326;2022-10-17T02:40:03;100178.97;;;14.64;89.03
6216;BME280;3141;49.234;9.326;2022-10-17T02:40:49;100178.63;;;14.67;88.86
6216;BME280;3141;49.234;9.326;2022-10-17T02:41:32;100179.47;;;14.67;88.59
6216;BME280;3141;49.234;9.326;2022-10-17T02:42:17;100183.31;;;14.65;88.49
6216;BME280;3141;49.234;9.326;2022-10-17T02:43:00;100175.47;;;14.63;88.44
6216;BME280;3141;49.234;9.326;2022-10-17T02:43:44;100177.81;;;14.58;88.82
6216;BME280;3141;49.234;9.326;2022-10-17T02:44:29;100188.66;;;14.49;89.18
6216;BME280;3141;49.234;9.326;2022-10-17T02:45:13;100189.78;;;14.46;89.54
6216;BME280;3141;49.234;9.326;2022-10-17T02:45:56;100189.66;;;14.48;89.78
6216;BME280;3141;49.234;9.326;2022-10-17T02:46:40;100187.00;;;14.48;89.72
6216;BME280;3141;49.234;9.326;2022-10-17T02:47:33;100193.97;;;14.49;89.60
6216;BME280;3141;49.234;9.326;2022-10-17T02:48:40;100193.97;;;14.49;88.68
6216;BME280;3141;49.234;9.326;2022-10-17T02:49:28;100196.13;;;14.53;88.59
6216;BME280;3141;49.234;9.326;2022-10-17T02:50:12;100192.13;;;14.57;88.39
6216;BME280;3141;49.234;9.326;2022-10-17T02:51:27;100192.97;;;14.58;88.21
6216;BME280;3141;49.234;9.326;2022-10-17T02:52:17;100195.31;;;14.53;87.73
6216;BME280;3141;49.234;9.326;2022-10-17T02:53:07;100194.28;;;14.54;87.13
6216;BME280;3141;49.234;9.326;2022-10-17T02:53:57;100189.31;;;14.43;87.64
6216;BME280;3141;49.234;9.326;2022-10-17T02:54:58;100198.63;;;14.47;88.13
6216;BME280;3141;49.234;9.326;2022-10-17T02:55:50;100198.13;;;14.35;88.17
6216;BME280;3141;49.234;9.326;2022-10-17T02:56:40;100197.78;;;14.38;88.64
6216;BME280;3141;49.234;9.326;2022-10-17T02:57:34;100203.63;;;14.42;88.68
6216;BME280;3141;49.234;9.326;2022-10-17T02:58:22;100200.44;;;14.46;88.75
6216;BME280;3141;49.234;9.326;2022-10-17T02:59:08;100202.63;;;14.51;88.56
6216;BME280;3141;49.234;9.326;2022-10-17T02:59:54;100199.59;;;14.54;88.13
6216;BME280;3141;49.234;9.326;2022-10-17T03:00:40;100194.13;;;14.55;87.69
6216;BME280;3141;49.234;9.326;2022-10-17T03:01:23;100202.09;;;14.55;87.18
6216;BME280;3141;49.234;9.326;2022-10-17T03:02:06;100198.59;;;14.55;87.67
6216;BME280;3141;49.234;9.326;2022-10-17T03:02:50;100197.97;;;14.53;87.72
6216;BME280;3141;49.234;9.326;2022-10-17T03:03:33;100195.31;;;14.53;87.50
6216;BME280;3141;49.234;9.326;2022-10-17T03:04:15;100200.63;;;14.53;87.54
6216;BME280;3141;49.234;9.326;2022-10-17T03:04:59;100192.31;;;14.48;87.68
6216;BME280;3141;49.234;9.326;2022-10-17T03:05:41;100197.97;;;14.53;87.86
6216;BME280;3141;49.234;9.326;2022-10-17T03:06:24;100195.97;;;14.47;87.99
6216;BME280;3141;49.234;9.326;2022-10-17T03:07:06;100199.81;;;14.44;88.25
6216;BME280;3141;49.234;9.326;2022-10-17T03:07:49;100204.94;;;14.46;87.89
6216;BME280;3141;49.234;9.326;2022-10-17T03:08:31;100191.13;;;14.50;87.85
6216;BME280;3141;49.234;9.326;2022-10-17T03:09:14;100201.59;;;14.52;87.55
6216;BME280;3141;49.234;9.326;2022-10-17T03:09:56;100203.59;;;14.50;87.58
6216;BME280;3141;49.234;9.326;2022-10-17T03:10:38;100205.25;;;14.43;88.16
6216;BME280;3141;49.234;9.326;2022-10-17T03:11:21;100206.78;;;14.37;88.57
6216;BME280;3141;49.234;9.326;2022-10-17T03:12:03;100205.44;;;14.33;89.10
6216;BME280;3141;49.234;9.326;2022-10-17T03:12:46;100204.28;;;14.28;89.71
6216;BME280;3141;49.234;9.326;2022-10-17T03:13:29;100203.13;;;14.30;89.73
6216;BME280;3141;49.234;9.326;2022-10-17T03:14:11;100210.91;;;14.40;89.22
6216;BME280;3141;49.234;9.326;2022-10-17T03:14:54;100208.25;;;14.40;89.16
6216;BME280;3141;49.234;9.326;2022-10-17T03:15:36;100203.97;;;14.39;88.83
6216;BME280;3141;49.234;9.326;2022-10-17T03:16:18;100207.59;;;14.38;88.44
6216;BME280;3141;49.234;9.326;2022-10-17T03:17:01;100203.63;;;14.42;88.28
6216;BME280;3141;49.234;9.326;2022-10-17T03:17:43;100205.13;;;14.44;88.37
6216;BME280;3141;49.234;9.326;2022-10-17T03:18:25;100206.94;;;14.44;87.99
6216;BME280;3141;49.234;9.326;2022-10-17T03:19:08;100201.13;;;14.40;88.17
6216;BME280;3141;49.234;9.326;2022-10-17T03:19:50;100207.59;;;14.38;88.49
6216;BME280;3141;49.234;9.326;2022-10-17T03:20:32;100212.09;;;14.37;88.53
6216;BME280;3141;49.234;9.326;2022-10-17T03:21:15;100209.28;;;14.39;88.52
6216;BME280;3141;49.234;9.326;2022-10-17T03:21:57;100209.28;;;14.39;88.53
6216;BME280;3141;49.234;9.326;2022-10-17T03:22:39;100208.28;;;14.32;88.76
6216;BME280;3141;49.234;9.326;2022-10-17T03:23:22;100209.78;;;14.26;89.33
6216;BME280;3141;49.234;9.326;2022-10-17T03:24:04;100210.41;;;14.20;90.02
6216;BME280;3141;49.234;9.326;2022-10-17T03:24:46;100212.91;;;14.22;90.37
6216;BME280;3141;49.234;9.326;2022-10-17T03:25:29;100213.28;;;14.27;90.37
6216;BME280;3141;49.234;9.326;2022-10-17T03:26:11;100209.59;;;14.28;89.86
6216;BME280;3141;49.234;9.326;2022-10-17T03:26:54;100218.91;;;14.32;89.80
6216;BME280;3141;49.234;9.326;2022-10-17T03:27:36;100214.28;;;14.34;89.65
6216;BME280;3141;49.234;9.326;2022-10-17T03:28:18;100218.41;;;14.28;89.69
6216;BME280;3141;49.234;9.326;2022-10-17T03:29:01;100219.88;;;14.23;89.98
6216;BME280;3141;49.234;9.326;2022-10-17T03:29:43;100215.22;;;14.17;90.36
6216;BME280;3141;49.234;9.326;2022-10-17T03:30:26;100215.22;;;14.17;90.32
6216;BME280;3141;49.234;9.326;2022-10-17T03:31:09;100217.22;;;14.23;90.40
6216;BME280;3141;49.234;9.326;2022-10-17T03:31:52;100220.72;;;14.23;90.09
6216;BME280;3141;49.234;9.326;2022-10-17T03:32:35;100219.03;;;14.22;90.04
6216;BME280;3141;49.234;9.326;2022-10-17T03:33:17;100217.38;;;14.21;89.95
6216;BME280;3141;49.234;9.326;2022-10-17T03:34:00;100225.03;;;14.16;90.53
6216;BME280;3141;49.234;9.326;2022-10-17T03:34:43;100216.56;;;14.13;90.54
6216;BME280;3141;49.234;9.326;2022-10-17T03:35:25;100218.03;;;14.15;90.83
6216;BME280;3141;49.234;9.326;2022-10-17T03:36:11;100216.72;;;14.11;91.02
6216;BME280;3141;49.234;9.326;2022-10-17T03:36:54;100222.84;;;14.12;91.48
6216;BME280;3141;49.234;9.326;2022-10-17T03:37:36;100221.03;;;14.12;91.38
6216;BME280;3141;49.234;9.326;2022-10-17T03:38:18;100223.00;;;14.10;91.98
6216;BME280;3141;49.234;9.326;2022-10-17T03:39:01;100214.22;;;14.10;92.12
6216;BME280;3141;49.234;9.326;2022-10-17T03:39:43;100221.19;;;14.11;91.88
6216;BME280;3141;49.234;9.326;2022-10-17T03:40:25;100216.88;;;14.18;91.22
6216;BME280;3141;49.234;9.326;2022-10-17T03:41:08;100223.72;;;14.20;91.08
6216;BME280;3141;49.234;9.326;2022-10-17T03:41:51;100220.06;;;14.13;91.06
6216;BME280;3141;49.234;9.326;2022-10-17T03:42:33;100213.72;;;14.14;91.33
6216;BME280;3141;49.234;9.326;2022-10-17T03:43:15;100215.88;;;14.11;91.03
6216;BME280;3141;49.234;9.326;2022-10-17T03:43:58;100214.88;;;14.12;91.10
6216;BME280;3141;49.234;9.326;2022-10-17T03:44:40;100217.53;;;14.12;91.15
6216;BME280;3141;49.234;9.326;2022-10-17T03:45:22;100218.19;;;14.06;91.10
6216;BME280;3141;49.234;9.326;2022-10-17T03:46:05;100216.56;;;14.05;91.59
6216;BME280;3141;49.234;9.326;2022-10-17T03:46:48;100222.84;;;14.04;91.63
6216;BME280;3141;49.234;9.326;2022-10-17T03:47:30;100216.56;;;14.05;91.55
6216;BME280;3141;49.234;9.326;2022-10-17T03:48:12;100220.19;;;14.04;91.64
6216;BME280;3141;49.234;9.326;2022-10-17T03:48:55;100218.19;;;14.06;91.08
6216;BME280;3141;49.234;9.326;2022-10-17T03:49:37;100221.03;;;14.04;91.11
6216;BME280;3141;49.234;9.326;2022-10-17T03:50:19;100223.34;;;14.07;91.09
6216;BME280;3141;49.234;9.326;2022-10-17T03:51:04;100222.03;;;14.11;90.60
6216;BME280;3141;49.234;9.326;2022-10-17T03:51:47;100228.84;;;14.14;90.29
6216;BME280;3141;49.234;9.326;2022-10-17T03:52:30;100225.19;;;14.15;89.73
6216;BME280;3141;49.234;9.326;2022-10-17T03:53:12;100223.72;;;14.20;89.59
6216;BME280;3141;49.234;9.326;2022-10-17T03:53:54;100218.22;;;14.22;89.44
6216;BME280;3141;49.234;9.326;2022-10-17T03:54:37;100218.22;;;14.22;89.55
6216;BME280;3141;49.234;9.326;2022-10-17T03:55:19;100217.22;;;14.15;89.22
6216;BME280;3141;49.234;9.326;2022-10-17T03:56:19;100219.84;;;14.07;90.05
6216;BME280;3141;49.234;9.326;2022-10-17T03:57:02;100215.88;;;14.03;90.47
6216;BME280;3141;49.234;9.326;2022-10-17T03:57:44;100218.53;;;14.03;90.87
6216;BME280;3141;49.234;9.326;2022-10-17T03:58:27;100221.66;;;13.98;91.08
6216;BME280;3141;49.234;9.326;2022-10-17T03:59:13;100215.53;;;13.98;90.98
6216;BME280;3141;49.234;9.326;2022-10-17T03:59:56;100215.03;;;14.02;90.81
6216;BME280;3141;49.234;9.326;2022-10-17T04:00:38;100220.53;;;14.09;90.31
6216;BME280;3141;49.234;9.326;2022-10-17T04:01:21;100221.69;;;14.06;90.33
6216;BME280;3141;49.234;9.326;2022-10-17T04:02:04;100226.34;;;14.12;90.12
6216;BME280;3141;49.234;9.326;2022-10-17T04:02:46;100222.34;;;14.08;90.33
6216;BME280;3141;49.234;9.326;2022-10-17T04:03:28;100225.00;;;14.08;89.77
6216;BME280;3141;49.234;9.326;2022-10-17T04:04:11;100226.50;;;14.11;89.68
6216;BME280;3141;49.234;9.326;2022-10-17T04:04:53;100224.19;;;14.08;89.60
6216;BME280;3141;49.234;9.326;2022-10-17T04:05:35;100222.69;;;14.05;89.64
6216;BME280;3141;49.234;9.326;2022-10-17T04:06:19;100224.16;;;14.00;89.74
6216;BME280;3141;49.234;9.326;2022-10-17T04:07:01;100216.88;;;14.02;89.88
6216;BME280;3141;49.234;9.326;2022-10-17T04:07:44;100224.19;;;14.08;89.44
6216;BME280;3141;49.234;9.326;2022-10-17T04:08:27;100224.88;;;14.10;89.23
6216;BME280;3141;49.234;9.326;2022-10-17T04:09:10;100229.84;;;14.13;89.00
6216;BME280;3141;49.234;9.326;2022-10-17T04:09:52;100222.53;;;14.15;88.74
6216;BME280;3141;49.234;9.326;2022-10-17T04:10:34;100224.19;;;14.16;88.70
6216;BME280;3141;49.234;9.326;2022-10-17T04:11:19;100221.19;;;14.11;88.98
6216;BME280;3141;49.234;9.326;2022-10-17T04:12:02;100229.16;;;14.11;88.58
6216;BME280;3141;49.234;9.326;2022-10-17T04:12:44;100221.69;;;14.06;88.38
6216;BME280;3141;49.234;9.326;2022-10-17T04:13:27;100224.53;;;14.05;87.99
6216;BME280;3141;49.234;9.326;2022-10-17T04:14:10;100219.69;;;14.08;88.34
6216;BME280;3141;49.234;9.326;2022-10-17T04:14:52;100232.97;;;14.08;88.37
6216;BME280;3141;49.234;9.326;2022-10-17T04:15:34;100227.19;;;14.05;88.43
6216;BME280;3141;49.234;9.326;2022-10-17T04:16:17;100221.00;;;13.96;88.97
6216;BME280;3141;49.234;9.326;2022-10-17T04:16:59;100236.44;;;13.84;89.46
6216;BME280;3141;49.234;9.326;2022-10-17T04:17:41;100227.63;;;13.84;89.62
6216;BME280;3141;49.234;9.326;2022-10-17T04:18:24;100228.63;;;13.83;89.95
6216;BME280;3141;49.234;9.326;2022-10-17T04:19:06;100235.59;;;13.84;90.15
6216;BME280;3141;49.234;9.326;2022-10-17T04:19:48;100236.28;;;13.86;90.05
6216;BME280;3141;49.234;9.326;2022-10-17T04:20:33;100232.97;;;13.92;89.67
6216;BME280;3141;49.234;9.326;2022-10-17T04:21:16;100235.63;;;13.92;89.24
6216;BME280;3141;49.234;9.326;2022-10-17T04:21:59;100239.44;;;13.89;89.29
6216;BME280;3141;49.234;9.326;2022-10-17T04:22:41;100241.78;;;13.93;89.04
6216;BME280;3141;49.234;9.326;2022-10-17T04:23:23;100241.78;;;13.93;89.13
6216;BME280;3141;49.234;9.326;2022-10-17T04:24:10;100235.47;;;13.93;89.02
6216;BME280;3141;49.234;9.326;2022-10-17T04:24:52;100239.44;;;13.89;88.79
6216;BME280;3141;49.234;9.326;2022-10-17T04:25:35;100238.78;;;13.96;88.84
6216;BME280;3141;49.234;9.326;2022-10-17T04:26:17;100244.78;;;13.98;88.98
6216;BME280;3141;49.234;9.326;2022-10-17T04:27:00;100248.75;;;14.02;88.79